createdAt,value
2022-10-23T00:01:46.688Z,101000.03
2022-10-23T00:04:17.080Z,100992.59
2022-10-23T00:06:48.240Z,100995.13
2022-10-23T00:09:21.524Z,100999.56
2022-10-23T00:11:54.770Z,100999.84
2022-10-23T00:14:25.590Z,100993.16
2022-10-23T00:16:56.047Z,100993.03
2022-10-23T00:19:24.331Z,101005.91
2022-10-23T00:21:52.391Z,101001.63
2022-10-23T00:24:26.266Z,101006.69
2022-10-23T00:26:55.715Z,101007.28
2022-10-23T00:29:29.228Z,101004.63
2022-10-23T00:31:57.386Z,101006.25
2022-10-23T00:34:25.141Z,100999.69
2022-10-23T00:36:55.347Z,101006.56
2022-10-23T00:39:23.833Z,101002.88
2022-10-23T00:41:51.947Z,100998.41
2022-10-23T00:45:00.954Z,101005.56
2022-10-23T00:47:30.150Z,101008.84
2022-10-23T00:50:00.338Z,101010.13
2022-10-23T00:52:28.911Z,101007.75
2022-10-23T00:54:57.891Z,100999.31
2022-10-23T00:57:26.082Z,100992.00
2022-10-23T00:59:54.201Z,100988.56
2022-10-23T01:02:25.917Z,100983.53
2022-10-23T01:04:55.119Z,100990.69
2022-10-23T01:07:30.397Z,100979.69
2022-10-23T01:10:07.050Z,100973.19
2022-10-23T01:12:45.449Z,100979.28
2022-10-23T01:15:20.776Z,100967.41
2022-10-23T01:17:55.247Z,100977.38
2022-10-23T01:20:38.397Z,100976.94
2022-10-23T01:23:23.756Z,100982.91
2022-10-23T01:26:07.854Z,100983.63
2022-10-23T01:28:43.548Z,100973.84
2022-10-23T01:31:17.415Z,100980.97
2022-10-23T01:33:49.988Z,100983.50
2022-10-23T01:36:30.432Z,100978.44
2022-10-23T01:41:37.494Z,100967.94
2022-10-23T01:44:12.271Z,100963.03
2022-10-23T01:46:41.292Z,100959.47
2022-10-23T01:49:13.588Z,100955.16
2022-10-23T01:51:46.779Z,100955.78
2022-10-23T01:54:17.844Z,100950.56
2022-10-23T01:56:50.562Z,100954.88
2022-10-23T01:59:32.144Z,100957.28
2022-10-23T02:02:02.003Z,100955.34
2022-10-23T02:04:39.299Z,100943.66
2022-10-23T02:07:08.169Z,100956.72
2022-10-23T02:09:36.635Z,100951.22
2022-10-23T02:12:08.863Z,100959.81
2022-10-23T02:14:52.423Z,100960.88
2022-10-23T02:17:27.761Z,100953.44
2022-10-23T02:20:06.897Z,100957.88
2022-10-23T02:22:39.902Z,100945.13
2022-10-23T02:25:12.169Z,100952.06
2022-10-23T02:27:46.190Z,100935.28
2022-10-23T02:30:18.684Z,100932.91
2022-10-23T02:32:55.848Z,100935.59
2022-10-23T02:35:27.256Z,100941.22
2022-10-23T02:38:04.685Z,100942.13
2022-10-23T02:40:39.923Z,100932.91
2022-10-23T02:43:15.268Z,100930.09
2022-10-23T02:45:53.728Z,100929.34
2022-10-23T02:48:28.068Z,100937.09
2022-10-23T02:51:04.082Z,100940.34
2022-10-23T02:53:40.313Z,100938.72
2022-10-23T02:56:13.958Z,100929.34
2022-10-23T02:58:49.612Z,100934.56
2022-10-23T03:01:23.997Z,100927.72
2022-10-23T03:03:54.575Z,100931.00
2022-10-23T03:06:24.901Z,100931.59
2022-10-23T03:09:08.455Z,100919.31
2022-10-23T03:11:38.720Z,100914.88
2022-10-23T03:14:06.643Z,100915.50
2022-10-23T03:16:35.902Z,100908.53
2022-10-23T03:19:03.846Z,100899.50
2022-10-23T03:21:32.367Z,100894.44
2022-10-23T03:24:02.460Z,100890.28
2022-10-23T03:26:36.333Z,100887.91
2022-10-23T03:29:05.363Z,100901.06
2022-10-23T03:31:38.867Z,100909.56
2022-10-23T03:34:11.041Z,100896.63
2022-10-23T03:36:41.215Z,100885.25
2022-10-23T03:39:12.851Z,100892.09
2022-10-23T03:41:43.850Z,100890.41
2022-10-23T03:44:25.932Z,100889.41
2022-10-23T03:46:57.674Z,100885.56
2022-10-23T03:49:25.979Z,100869.63
2022-10-23T03:54:36.368Z,100879.13
2022-10-23T03:57:04.622Z,100879.59
2022-10-23T03:59:32.811Z,100859.03
2022-10-23T04:02:04.895Z,100876.63
2022-10-23T04:04:35.874Z,100876.50
2022-10-23T04:07:03.767Z,100884.69
2022-10-23T04:09:42.926Z,100880.09
2022-10-23T04:12:16.183Z,100894.06
2022-10-23T04:14:44.889Z,100897.03
2022-10-23T04:17:14.166Z,100890.97
2022-10-23T04:19:43.820Z,100884.59
2022-10-23T04:22:11.624Z,100887.88
2022-10-23T04:24:45.361Z,100873.19
2022-10-23T04:27:18.179Z,100878.97
2022-10-23T04:29:54.255Z,100881.31
2022-10-23T04:32:26.129Z,100883.56
2022-10-23T04:34:55.837Z,100879.25
2022-10-23T04:37:23.967Z,100883.44
2022-10-23T04:39:51.927Z,100873.94
2022-10-23T04:42:19.836Z,100868.63
2022-10-23T04:44:48.686Z,100870.97
2022-10-23T04:47:16.624Z,100874.84
2022-10-23T04:49:58.686Z,100885.69
2022-10-23T04:52:57.875Z,100872.50
2022-10-23T04:55:59.067Z,100880.81
2022-10-23T04:58:36.271Z,100882.31
2022-10-23T05:01:07.310Z,100875.59
2022-10-23T05:03:36.673Z,100885.56
2022-10-23T05:06:06.649Z,100878.75
2022-10-23T05:08:52.908Z,100881.53
2022-10-23T05:11:50.174Z,100869.13
2022-10-23T05:14:25.299Z,100873.25
2022-10-23T05:16:58.457Z,100875.91
2022-10-23T05:19:38.770Z,100876.78
2022-10-23T05:22:08.385Z,100876.66
2022-10-23T05:25:03.069Z,100884.19
2022-10-23T05:27:32.968Z,100868.34
2022-10-23T05:30:00.826Z,100873.09
2022-10-23T05:32:33.275Z,100858.88
2022-10-23T05:35:04.002Z,100851.91
2022-10-23T05:37:33.824Z,100844.06
2022-10-23T05:40:10.453Z,100861.38
2022-10-23T05:42:41.709Z,100852.78
2022-10-23T05:45:12.175Z,100852.78
2022-10-23T05:48:10.786Z,100849.53
2022-10-23T05:51:06.309Z,100855.31
2022-10-23T05:53:54.398Z,100853.56
2022-10-23T05:56:41.488Z,100847.63
2022-10-23T05:59:28.007Z,100844.97
2022-10-23T06:02:14.088Z,100842.56
2022-10-23T06:04:51.320Z,100831.31
2022-10-23T06:07:50.704Z,100847.03
2022-10-23T06:10:24.141Z,100858.28
2022-10-23T06:12:54.367Z,100849.97
2022-10-23T06:15:32.615Z,100840.34
2022-10-23T06:18:20.726Z,100845.81
2022-10-23T06:21:04.456Z,100843.56
2022-10-23T06:23:33.045Z,100842.25
2022-10-23T06:26:21.101Z,100843.41
2022-10-23T06:29:12.239Z,100851.38
2022-10-23T06:31:47.352Z,100846.78
2022-10-23T06:34:17.935Z,100839.94
2022-10-23T06:36:47.161Z,100843.38
2022-10-23T06:39:33.504Z,100843.78
2022-10-23T06:42:23.299Z,100838.41
2022-10-23T06:45:07.234Z,100837.81
2022-10-23T06:47:44.346Z,100832.91
2022-10-23T06:50:48.470Z,100834.06
2022-10-23T06:53:23.627Z,100829.03
2022-10-23T06:56:00.415Z,100828.16
2022-10-23T06:58:29.840Z,100828.16
2022-10-23T07:01:08.668Z,100819.56
2022-10-23T07:03:36.701Z,100820.28
2022-10-23T07:06:09.989Z,100827.22
2022-10-23T07:08:38.953Z,100829.28
2022-10-23T07:11:31.960Z,100825.13
2022-10-23T07:14:15.892Z,100822.25
2022-10-23T07:16:43.984Z,100806.56
2022-10-23T07:19:14.361Z,100820.56
2022-10-23T07:21:53.946Z,100824.41
2022-10-23T07:24:49.176Z,100821.09
2022-10-23T07:27:41.830Z,100821.00
2022-10-23T07:30:18.554Z,100815.50
2022-10-23T07:32:51.551Z,100808.94
2022-10-23T07:35:40.198Z,100816.03
2022-10-23T07:38:15.008Z,100805.19
2022-10-23T07:40:46.898Z,100808.72
2022-10-23T07:43:18.465Z,100812.28
2022-10-23T07:45:51.327Z,100816.84
2022-10-23T07:48:51.494Z,100811.44
2022-10-23T07:51:19.419Z,100807.72
2022-10-23T07:53:51.438Z,100804.06
2022-10-23T07:56:32.689Z,100813.09
2022-10-23T07:59:20.753Z,100803.13
2022-10-23T08:01:56.807Z,100798.31
2022-10-23T08:04:36.154Z,100798.84
2022-10-23T08:10:03.133Z,100792.66
2022-10-23T08:12:34.372Z,100796.84
2022-10-23T08:15:05.126Z,100792.56
2022-10-23T08:17:50.271Z,100792.63
2022-10-23T08:20:26.929Z,100799.47
2022-10-23T08:22:57.751Z,100785.72
2022-10-23T08:25:26.931Z,100788.91
2022-10-23T08:28:27.820Z,100785.22
2022-10-23T08:30:57.110Z,100786.75
2022-10-23T08:33:35.677Z,100775.63
2022-10-23T08:38:53.551Z,100793.09
2022-10-23T08:41:28.466Z,100792.09
2022-10-23T08:44:14.475Z,100778.78
2022-10-23T08:47:12.609Z,100780.44
2022-10-23T08:50:32.125Z,100779.44
2022-10-23T08:53:13.308Z,100773.66
2022-10-23T08:55:48.359Z,100762.47
2022-10-23T08:58:19.681Z,100758.41
2022-10-23T09:00:51.065Z,100770.06
2022-10-23T09:03:19.522Z,100736.13
2022-10-23T09:06:01.005Z,100763.78
2022-10-23T09:08:48.292Z,100758.94
2022-10-23T09:11:23.195Z,100760.53
2022-10-23T09:14:16.698Z,100753.03
2022-10-23T09:17:08.316Z,100760.38
2022-10-23T09:19:39.337Z,100758.44
2022-10-23T09:22:11.961Z,100750.81
2022-10-23T09:24:44.036Z,100765.75
2022-10-23T09:27:18.158Z,100769.66
2022-10-23T09:29:54.256Z,100776.66
2022-10-23T09:32:34.149Z,100775.63
2022-10-23T09:35:02.108Z,100781.44
2022-10-23T09:37:33.183Z,100776.94
2022-10-23T09:40:20.895Z,100777.28
2022-10-23T09:42:58.340Z,100771.19
2022-10-23T09:45:34.416Z,100773.19
2022-10-23T09:48:19.146Z,100754.22
2022-10-23T09:50:52.422Z,100763.75
2022-10-23T09:53:44.252Z,100759.41
2022-10-23T09:56:29.759Z,100756.19
2022-10-23T09:58:59.881Z,100765.91
2022-10-23T10:01:33.801Z,100758.34
2022-10-23T10:04:35.680Z,100752.63
2022-10-23T10:07:19.771Z,100750.53
2022-10-23T10:09:49.242Z,100748.91
2022-10-23T10:12:44.315Z,100741.91
2022-10-23T10:15:18.019Z,100742.47
2022-10-23T10:18:00.473Z,100739.38
2022-10-23T10:21:03.824Z,100737.41
2022-10-23T10:23:41.412Z,100726.25
2022-10-23T10:26:20.667Z,100719.53
2022-10-23T10:29:06.853Z,100716.09
2022-10-23T10:31:57.435Z,100703.63
2022-10-23T10:34:32.954Z,100697.88
2022-10-23T10:37:12.774Z,100700.09
2022-10-23T10:39:50.036Z,100701.91
2022-10-23T10:42:47.781Z,100699.66
2022-10-23T10:45:32.330Z,100699.13
2022-10-23T10:48:42.015Z,100697.91
2022-10-23T10:51:57.457Z,100689.84
2022-10-23T10:54:45.463Z,100682.72
2022-10-23T10:57:27.529Z,100677.59
2022-10-23T11:00:03.190Z,100672.38
2022-10-23T11:02:39.722Z,100666.50
2022-10-23T11:05:19.928Z,100650.25
2022-10-23T11:07:56.428Z,100673.31
2022-10-23T11:10:24.522Z,100670.63
2022-10-23T11:12:53.358Z,100669.38
2022-10-23T11:15:29.380Z,100653.13
2022-10-23T11:18:00.706Z,100663.28
2022-10-23T11:21:09.351Z,100646.63
2022-10-23T11:24:11.748Z,100638.91
2022-10-23T11:26:52.842Z,100636.31
2022-10-23T11:29:51.782Z,100636.38
2022-10-23T11:32:43.730Z,100633.00
2022-10-23T11:35:41.102Z,100623.88
2022-10-23T11:38:18.687Z,100620.19
2022-10-23T11:40:55.189Z,100614.38
2022-10-23T11:43:30.992Z,100604.50
2022-10-23T11:46:36.299Z,100606.22
2022-10-23T11:49:06.930Z,100608.03
2022-10-23T11:51:38.719Z,100612.06
2022-10-23T11:54:24.379Z,100595.97
2022-10-23T11:57:10.863Z,100589.06
2022-10-23T12:00:01.773Z,100579.44
2022-10-23T12:02:33.704Z,100549.00
2022-10-23T12:05:07.322Z,100578.16
2022-10-23T12:07:41.709Z,100564.44
2022-10-23T12:10:24.844Z,100568.66
2022-10-23T12:13:11.617Z,100571.19
2022-10-23T12:15:39.715Z,100564.69
2022-10-23T12:18:15.848Z,100562.44
2022-10-23T12:21:00.085Z,100554.41
2022-10-23T12:23:50.898Z,100546.97
2022-10-23T12:26:27.765Z,100518.81
2022-10-23T12:29:12.120Z,100539.69
2022-10-23T12:31:48.029Z,100532.22
2022-10-23T12:34:30.906Z,100522.75
2022-10-23T12:37:13.544Z,100514.44
2022-10-23T12:39:44.410Z,100464.53
2022-10-23T12:42:18.330Z,100507.28
2022-10-23T12:44:45.986Z,100491.31
2022-10-23T12:47:19.697Z,100482.69
2022-10-23T12:49:50.465Z,100481.47
2022-10-23T12:52:24.532Z,100471.69
2022-10-23T12:54:52.410Z,100480.91
2022-10-23T12:57:22.952Z,100489.84
2022-10-23T12:59:54.289Z,100491.91
2022-10-23T13:02:25.865Z,100481.47
2022-10-23T13:04:55.462Z,100474.50
2022-10-23T13:07:28.248Z,100472.56
2022-10-23T13:09:59.532Z,100461.38
2022-10-23T13:12:34.478Z,100470.00
2022-10-23T13:15:14.774Z,100464.31
2022-10-23T13:18:09.080Z,100453.16
2022-10-23T13:20:39.444Z,100450.59
2022-10-23T13:23:31.080Z,100430.22
2022-10-23T13:26:00.982Z,100426.03
2022-10-23T13:28:30.715Z,100420.03
2022-10-23T13:31:03.748Z,100413.38
2022-10-23T13:33:39.164Z,100401.59
2022-10-23T13:36:25.263Z,100404.97
2022-10-23T13:39:04.933Z,100412.47
2022-10-23T13:41:39.500Z,100424.38
2022-10-23T13:44:08.176Z,100419.28
2022-10-23T13:46:38.380Z,100419.34
2022-10-23T13:49:06.373Z,100412.47
2022-10-23T13:51:43.600Z,100421.81
2022-10-23T13:54:17.133Z,100421.59
2022-10-23T13:56:45.408Z,100418.16
2022-10-23T13:59:13.680Z,100415.53
2022-10-23T14:01:46.190Z,100428.28
2022-10-23T14:04:26.210Z,100421.59
2022-10-23T14:06:58.466Z,100418.28
2022-10-23T14:09:30.294Z,100407.91
2022-10-23T14:11:58.106Z,100409.47
2022-10-23T14:14:25.904Z,100402.44
2022-10-23T14:16:55.082Z,100397.75
2022-10-23T14:19:25.067Z,100384.84
2022-10-23T14:21:53.224Z,100380.34
2022-10-23T14:24:26.687Z,100369.88
2022-10-23T14:26:57.499Z,100365.50
2022-10-23T14:29:27.733Z,100352.66
2022-10-23T14:31:57.644Z,100353.63
2022-10-23T14:34:26.228Z,100351.16
2022-10-23T14:37:08.935Z,100342.66
2022-10-23T14:39:37.386Z,100337.56
2022-10-23T14:42:06.806Z,100335.88
2022-10-23T14:44:34.619Z,100344.31
2022-10-23T14:47:03.115Z,100341.59
2022-10-23T14:49:32.452Z,100343.94
2022-10-23T14:52:02.404Z,100352.38
2022-10-23T14:54:34.481Z,100331.81
2022-10-23T14:57:02.274Z,100332.41
2022-10-23T14:59:39.402Z,100324.50
2022-10-23T15:02:09.634Z,100308.94
2022-10-23T15:04:37.421Z,100303.78
2022-10-23T15:07:05.304Z,100294.28
2022-10-23T15:09:39.691Z,100289.06
2022-10-23T15:12:11.246Z,100275.28
2022-10-23T15:14:40.398Z,100258.06
2022-10-23T15:17:09.777Z,100270.72
2022-10-23T15:19:40.813Z,100281.56
2022-10-23T15:22:13.091Z,100278.94
2022-10-23T15:24:40.849Z,100266.72
2022-10-23T15:29:37.336Z,100273.06
2022-10-23T15:32:11.444Z,100284.72
2022-10-23T15:34:50.563Z,100282.69
2022-10-23T15:37:21.479Z,100270.56
2022-10-23T15:39:49.345Z,100266.78
2022-10-23T15:42:20.164Z,100264.59
2022-10-23T15:44:50.614Z,100261.50
2022-10-23T15:47:20.239Z,100254.44
2022-10-23T15:49:47.990Z,100249.19
2022-10-23T15:52:19.016Z,100254.94
2022-10-23T15:54:47.003Z,100247.91
2022-10-23T15:57:17.123Z,100255.44
2022-10-23T15:59:45.024Z,100249.19
2022-10-23T16:02:13.280Z,100241.38
2022-10-23T16:04:42.659Z,100226.91
2022-10-23T16:07:11.387Z,100216.19
2022-10-23T16:09:39.225Z,100209.88
2022-10-23T16:12:08.125Z,100207.91
2022-10-23T16:14:45.067Z,100191.50
2022-10-23T16:19:48.333Z,100200.19
2022-10-23T16:22:17.492Z,100207.50
2022-10-23T16:24:45.252Z,100213.38
2022-10-23T16:27:13.342Z,100213.69
2022-10-23T16:29:41.205Z,100212.41
2022-10-23T16:32:09.065Z,100201.66
2022-10-23T16:34:37.869Z,100194.22
2022-10-23T16:37:07.228Z,100197.66
2022-10-23T16:39:54.734Z,100191.50
2022-10-23T16:43:07.809Z,100192.88
2022-10-23T16:46:08.116Z,100197.34
2022-10-23T16:48:36.761Z,100204.38
2022-10-23T16:51:07.291Z,100194.94
2022-10-23T16:53:39.880Z,100171.19
2022-10-23T16:56:10.262Z,100165.72
2022-10-23T16:58:40.827Z,100153.50
2022-10-23T17:01:10.526Z,100162.50
2022-10-23T17:03:43.794Z,100156.22
2022-10-23T17:06:14.784Z,100123.63
2022-10-23T17:08:52.543Z,100136.81
2022-10-23T17:11:22.108Z,100130.66
2022-10-23T17:13:55.175Z,100134.66
2022-10-23T17:16:28.321Z,100135.91
2022-10-23T17:18:56.542Z,100135.91
2022-10-23T17:21:24.971Z,100143.41
2022-10-23T17:23:54.101Z,100138.91
2022-10-23T17:26:27.738Z,100135.41
2022-10-23T17:28:55.753Z,100133.44
2022-10-23T17:31:25.658Z,100134.91
2022-10-23T17:33:56.843Z,100135.56
2022-10-23T17:36:25.127Z,100145.03
2022-10-23T17:38:54.565Z,100144.25
2022-10-23T17:41:29.044Z,100151.19
2022-10-23T17:43:57.713Z,100171.72
2022-10-23T17:46:29.646Z,100174.53
2022-10-23T17:48:58.122Z,100178.84
2022-10-23T17:51:34.420Z,100191.63
2022-10-23T17:54:05.702Z,100203.75
2022-10-23T17:56:34.856Z,100217.69
2022-10-23T17:59:05.973Z,100235.97
2022-10-23T18:01:33.958Z,100233.66
2022-10-23T18:04:03.974Z,100252.22
2022-10-23T18:06:35.262Z,100274.59
2022-10-23T18:09:06.708Z,100290.03
2022-10-23T18:11:36.693Z,100284.31
2022-10-23T18:14:08.380Z,100281.06
2022-10-23T18:16:37.855Z,100276.69
2022-10-23T18:19:06.074Z,100278.25
2022-10-23T18:21:34.753Z,100268.56
2022-10-23T18:24:14.203Z,100268.44
2022-10-23T18:26:43.080Z,100262.28
2022-10-23T18:29:12.667Z,100269.91
2022-10-23T18:31:40.905Z,100258.75
2022-10-23T18:34:13.213Z,100265.38
2022-10-23T18:36:41.662Z,100256.59
2022-10-23T18:39:15.387Z,100266.84
2022-10-23T18:41:46.050Z,100257.28
2022-10-23T18:44:17.223Z,100274.06
2022-10-23T18:46:45.549Z,100269.66
2022-10-23T18:49:13.866Z,100267.28
2022-10-23T18:51:42.211Z,100282.03
2022-10-23T18:54:15.001Z,100290.22
2022-10-23T18:56:46.425Z,100291.78
2022-10-23T18:59:16.279Z,100289.81
2022-10-23T19:01:50.853Z,100289.59
2022-10-23T19:04:19.218Z,100296.03
2022-10-23T19:06:48.542Z,100286.66
2022-10-23T19:09:18.420Z,100283.34
2022-10-23T19:11:49.082Z,100279.84
2022-10-23T19:14:16.870Z,100291.81
2022-10-23T19:16:54.253Z,100286.00
2022-10-23T19:19:25.510Z,100293.78
2022-10-23T19:21:54.957Z,100293.91
2022-10-23T19:24:33.593Z,100292.56
2022-10-23T19:27:02.755Z,100297.06
2022-10-23T19:29:31.260Z,100295.53
2022-10-23T19:32:05.468Z,100282.84
2022-10-23T19:34:33.287Z,100295.88
2022-10-23T19:37:01.299Z,100254.59
2022-10-23T19:39:33.322Z,100282.94
2022-10-23T19:42:01.400Z,100286.31
2022-10-23T19:44:29.576Z,100281.72
2022-10-23T19:46:57.478Z,100276.44
2022-10-23T19:49:25.206Z,100276.25
2022-10-23T19:52:01.313Z,100283.44
2022-10-23T19:54:30.943Z,100281.31
2022-10-23T19:56:58.726Z,100274.38
2022-10-23T19:59:26.699Z,100268.22
2022-10-23T20:01:54.718Z,100272.41
2022-10-23T20:04:22.692Z,100271.41
2022-10-23T20:06:50.557Z,100269.66
2022-10-23T20:09:18.294Z,100261.91
2022-10-23T20:11:49.193Z,100223.81
2022-10-23T20:14:20.232Z,100236.38
2022-10-23T20:16:54.951Z,100222.59
2022-10-23T20:19:23.859Z,100189.22
2022-10-23T20:21:54.339Z,100182.06
2022-10-23T20:24:22.813Z,100158.84
2022-10-23T20:26:54.727Z,100115.34
2022-10-23T20:29:37.353Z,100136.88
2022-10-23T20:32:05.428Z,100138.19
2022-10-23T20:34:33.514Z,100140.50
2022-10-23T20:37:01.746Z,100160.00
2022-10-23T20:39:35.561Z,100197.25
2022-10-23T20:42:05.308Z,100181.47
2022-10-23T20:44:38.157Z,100145.22
2022-10-23T20:47:06.039Z,100079.34
2022-10-23T20:49:33.774Z,100071.63
2022-10-23T20:52:02.758Z,100066.16
2022-10-23T20:54:31.726Z,100090.72
2022-10-23T20:56:59.823Z,100139.72
2022-10-23T20:59:31.245Z,100158.56
2022-10-23T21:02:05.164Z,100150.28
2022-10-23T21:04:33.437Z,100137.41
2022-10-23T21:07:09.856Z,100120.34
2022-10-23T21:09:38.768Z,100121.88
2022-10-23T21:12:10.260Z,100115.06
2022-10-23T21:14:39.640Z,100129.19
2022-10-23T21:17:16.704Z,100144.41
2022-10-23T21:19:52.201Z,100137.25
2022-10-23T21:22:20.104Z,100138.78
2022-10-23T21:24:48.150Z,100132.63
2022-10-23T21:27:16.206Z,100128.88
2022-10-23T21:29:47.871Z,100147.97
2022-10-23T21:32:15.734Z,100144.22
2022-10-23T21:34:43.654Z,100152.16
2022-10-23T21:37:13.468Z,100149.28
2022-10-23T21:39:42.450Z,100154.25
2022-10-23T21:42:20.170Z,100150.59
2022-10-23T21:44:49.351Z,100167.44
2022-10-23T21:47:17.584Z,100175.72
2022-10-23T21:49:45.637Z,100159.66
2022-10-23T21:52:19.052Z,100131.34
2022-10-23T21:54:52.815Z,100157.66
2022-10-23T21:57:23.916Z,100150.88
2022-10-23T21:59:55.536Z,100143.88
2022-10-23T22:02:26.324Z,100137.72
2022-10-23T22:04:54.334Z,100134.97
2022-10-23T22:07:22.202Z,100124.63
2022-10-23T22:10:17.653Z,100127.38
2022-10-23T22:12:48.174Z,100121.44
2022-10-23T22:15:17.601Z,100121.56
2022-10-23T22:17:45.748Z,100119.78
2022-10-23T22:20:13.770Z,100112.06
2022-10-23T22:22:44.712Z,100121.31
2022-10-23T22:25:12.460Z,100122.88
2022-10-23T22:30:23.516Z,100151.28
2022-10-23T22:32:51.339Z,100150.28
2022-10-23T22:35:20.728Z,100152.03
2022-10-23T22:37:51.600Z,100152.81
2022-10-23T22:40:19.441Z,100158.53
2022-10-23T22:42:47.377Z,100158.53
2022-10-23T22:45:15.294Z,100159.94
2022-10-23T22:47:49.276Z,100163.22
2022-10-23T22:50:17.734Z,100173.34
2022-10-23T22:52:45.756Z,100167.66
2022-10-23T22:55:14.012Z,100176.13
2022-10-23T22:57:42.093Z,100171.06
2022-10-23T23:00:11.190Z,100180.94
2022-10-23T23:02:38.909Z,100180.72
2022-10-23T23:05:20.217Z,100192.19
2022-10-23T23:07:47.949Z,100183.81
2022-10-23T23:10:15.931Z,100180.28
2022-10-23T23:12:43.675Z,100177.75
2022-10-23T23:15:11.760Z,100161.56
2022-10-23T23:17:39.516Z,100170.94
2022-10-23T23:20:08.011Z,100172.38
2022-10-23T23:22:39.913Z,100169.59
2022-10-23T23:25:12.942Z,100169.50
2022-10-23T23:27:41.228Z,100171.25
2022-10-23T23:30:10.501Z,100173.91
2022-10-23T23:32:41.366Z,100178.97
2022-10-23T23:35:10.041Z,100177.09
2022-10-23T23:37:39.122Z,100175.44
2022-10-23T23:40:08.526Z,100168.72
2022-10-23T23:42:36.580Z,100162.25
2022-10-23T23:45:14.249Z,100163.81
2022-10-23T23:47:43.139Z,100161.06
2022-10-23T23:50:17.446Z,100152.13
2022-10-23T23:52:48.695Z,100159.41
2022-10-23T23:55:16.739Z,100147.06
2022-10-23T23:57:44.654Z,100144.47
